createdAt,value
2022-09-01T00:00:39.185Z,11.90
2022-09-01T00:03:41.860Z,12.17
2022-09-01T00:06:44.529Z,12.00
2022-09-01T00:09:46.549Z,11.87
2022-09-01T00:12:48.627Z,11.07
2022-09-01T00:15:50.702Z,10.90
2022-09-01T00:18:54.674Z,10.60
2022-09-01T00:21:57.405Z,10.30
2022-09-01T00:24:59.704Z,11.70
2022-09-01T00:28:05.240Z,10.40
2022-09-01T00:31:08.479Z,10.77
2022-09-01T00:34:11.069Z,11.47
2022-09-01T00:37:13.649Z,12.03
2022-09-01T00:40:17.397Z,10.30
2022-09-01T00:43:38.560Z,11.87
2022-09-01T00:46:49.555Z,10.80
2022-09-01T00:49:52.610Z,10.30
2022-09-01T00:52:55.369Z,9.77
2022-09-01T00:55:57.494Z,9.63
2022-09-01T00:59:00.771Z,9.50
2022-09-01T01:02:02.724Z,9.70
2022-09-01T01:05:06.659Z,9.00
2022-09-01T01:08:09.844Z,9.57
2022-09-01T01:11:18.136Z,9.03
2022-09-01T01:14:20.484Z,9.30
2022-09-01T01:17:23.523Z,9.07
2022-09-01T01:20:47.048Z,9.70
2022-09-01T01:23:56.888Z,10.53
2022-09-01T01:27:03.679Z,8.77
2022-09-01T01:30:10.264Z,8.97
2022-09-01T01:33:12.190Z,8.70
2022-09-01T01:36:32.768Z,9.23
2022-09-01T01:39:34.744Z,8.57
2022-09-01T01:42:38.169Z,9.27
2022-09-01T01:45:40.147Z,9.87
2022-09-01T01:48:43.045Z,9.63
2022-09-01T01:51:45.719Z,10.07
2022-09-01T01:54:47.733Z,11.67
2022-09-01T01:57:50.345Z,11.00
2022-09-01T02:00:54.468Z,10.20
2022-09-01T02:03:59.168Z,10.23
2022-09-01T02:07:02.554Z,10.10
2022-09-01T02:10:04.894Z,10.67
2022-09-01T02:13:12.423Z,10.30
2022-09-01T02:16:14.500Z,9.53
2022-09-01T02:19:21.238Z,11.07
2022-09-01T02:22:23.219Z,9.07
2022-09-01T02:25:26.648Z,10.57
2022-09-01T02:28:32.173Z,9.83
2022-09-01T02:31:35.998Z,10.63
2022-09-01T02:34:40.092Z,10.37
2022-09-01T02:37:43.896Z,10.43
2022-09-01T02:40:47.070Z,10.70
2022-09-01T02:43:49.658Z,9.70
2022-09-01T02:46:51.668Z,11.17
2022-09-01T02:49:53.647Z,12.70
2022-09-01T02:52:55.549Z,12.07
2022-09-01T02:55:59.663Z,12.33
2022-09-01T02:59:03.441Z,12.53
2022-09-01T03:02:08.563Z,11.73
2022-09-01T03:05:12.332Z,12.47
2022-09-01T03:08:17.920Z,13.00
2022-09-01T03:11:20.998Z,12.37
2022-09-01T03:14:24.439Z,12.77
2022-09-01T03:17:26.504Z,12.77
2022-09-01T03:20:31.353Z,12.77
2022-09-01T03:23:34.274Z,12.73
2022-09-01T03:26:37.043Z,11.97
2022-09-01T03:29:38.963Z,13.20
2022-09-01T03:32:41.209Z,13.03
2022-09-01T03:35:44.349Z,12.80
2022-09-01T03:38:49.010Z,13.33
2022-09-01T03:41:51.010Z,12.67
2022-09-01T03:44:53.752Z,13.33
2022-09-01T03:47:56.647Z,12.97
2022-09-01T03:51:03.478Z,12.30
2022-09-01T03:54:05.608Z,12.30
2022-09-01T03:57:10.378Z,12.30
2022-09-01T04:00:20.826Z,12.33
2022-09-01T04:03:28.509Z,12.37
2022-09-01T04:06:31.511Z,11.70
2022-09-01T04:09:35.447Z,12.40
2022-09-01T04:12:39.028Z,12.50
2022-09-01T04:15:40.964Z,12.43
2022-09-01T04:18:44.381Z,12.53
2022-09-01T04:21:52.083Z,12.20
2022-09-01T04:24:54.058Z,10.90
2022-09-01T04:27:57.330Z,11.67
2022-09-01T04:30:59.689Z,10.73
2022-09-01T04:34:02.348Z,11.90
2022-09-01T04:37:13.401Z,11.63
2022-09-01T04:40:15.499Z,12.07
2022-09-01T04:43:17.834Z,10.93
2022-09-01T04:46:20.359Z,11.70
2022-09-01T04:49:23.939Z,11.77
2022-09-01T04:52:26.599Z,12.07
2022-09-01T04:55:30.168Z,13.23
2022-09-01T04:58:32.805Z,12.73
2022-09-01T05:01:45.481Z,13.30
2022-09-01T05:04:47.500Z,12.47
2022-09-01T05:07:55.739Z,12.17
2022-09-01T05:10:57.943Z,12.60
2022-09-01T05:13:59.894Z,12.40
2022-09-01T05:17:02.300Z,12.07
2022-09-01T05:20:05.103Z,11.93
2022-09-01T05:23:08.334Z,11.93
2022-09-01T05:26:21.028Z,12.20
2022-09-01T05:29:23.099Z,12.40
2022-09-01T05:32:26.443Z,12.53
2022-09-01T05:35:32.379Z,12.40
2022-09-01T05:38:35.419Z,12.63
2022-09-01T05:41:37.383Z,14.00
2022-09-01T05:44:44.496Z,13.27
2022-09-01T05:47:46.864Z,13.67
2022-09-01T05:50:49.977Z,12.93
2022-09-01T05:53:55.324Z,13.33
2022-09-01T05:57:17.498Z,13.07
2022-09-01T06:00:21.923Z,14.27
2022-09-01T06:03:25.349Z,13.97
2022-09-01T06:06:43.773Z,12.67
2022-09-01T06:09:53.994Z,11.77
2022-09-01T06:12:55.906Z,11.73
2022-09-01T06:16:02.909Z,12.60
2022-09-01T06:19:05.723Z,13.40
2022-09-01T06:22:07.835Z,12.50
2022-09-01T06:25:10.449Z,12.53
2022-09-01T06:28:16.189Z,12.10
2022-09-01T06:31:24.070Z,13.00
2022-09-01T06:34:26.481Z,12.67
2022-09-01T06:37:29.124Z,12.63
2022-09-01T06:40:32.586Z,11.83
2022-09-01T06:43:34.628Z,11.67
2022-09-01T06:46:36.638Z,11.63
2022-09-01T06:49:41.343Z,10.97
2022-09-01T06:56:05.547Z,9.67
2022-09-01T06:59:08.245Z,10.60
2022-09-01T07:02:17.225Z,10.40
2022-09-01T07:12:25.340Z,7.87
2022-09-01T07:18:59.812Z,7.17
2022-09-01T07:22:09.717Z,7.33
2022-09-01T07:25:34.337Z,8.03
2022-09-01T07:28:51.040Z,7.00
2022-09-01T07:35:21.811Z,7.73
2022-09-01T07:45:26.828Z,6.60
2022-09-01T07:49:01.807Z,6.50
2022-09-01T07:51:52.150Z,5.50
2022-09-01T07:54:54.108Z,5.80
2022-09-01T07:57:56.060Z,6.03
2022-09-01T08:01:02.750Z,8.30
2022-09-01T08:04:04.769Z,9.53
2022-09-01T08:07:06.639Z,9.57
2022-09-01T08:10:09.161Z,11.90
2022-09-01T08:13:15.289Z,11.33
2022-09-01T08:16:18.015Z,10.27
2022-09-01T08:19:20.715Z,9.63
2022-09-01T08:22:24.487Z,11.60
2022-09-01T08:25:26.619Z,11.40
2022-09-01T08:28:28.730Z,12.70
2022-09-01T08:31:31.353Z,12.93
2022-09-01T08:34:34.566Z,13.43
2022-09-01T08:37:36.956Z,12.60
2022-09-01T08:40:41.546Z,12.87
2022-09-01T08:44:27.049Z,12.30
2022-09-01T08:47:43.656Z,12.73
2022-09-01T08:50:57.699Z,12.70
2022-09-01T08:54:29.759Z,11.23
2022-09-01T08:57:37.060Z,10.83
2022-09-01T09:00:51.441Z,11.03
2022-09-01T09:04:14.657Z,11.60
2022-09-01T09:07:27.858Z,10.40
2022-09-01T09:10:35.005Z,9.40
2022-09-01T09:13:59.044Z,9.90
2022-09-01T09:17:01.597Z,9.40
2022-09-01T09:20:05.634Z,10.33
2022-09-01T09:23:17.481Z,8.97
2022-09-01T09:26:22.252Z,9.40
2022-09-01T09:29:25.457Z,9.23
2022-09-01T09:36:25.340Z,9.05
2022-09-01T09:39:29.939Z,8.13
2022-09-01T09:42:36.379Z,8.60
2022-09-01T09:45:42.178Z,8.23
2022-09-01T09:48:44.813Z,8.45
2022-09-01T09:52:10.082Z,8.45
2022-09-01T09:55:59.580Z,6.53
2022-09-01T09:59:01.944Z,7.27
2022-09-01T10:02:28.003Z,7.13
2022-09-01T10:05:48.098Z,6.70
2022-09-01T10:08:50.359Z,6.43
2022-09-01T10:11:55.389Z,5.78
2022-09-01T10:15:12.547Z,5.20
2022-09-01T10:18:21.901Z,5.75
2022-09-01T10:21:33.155Z,5.35
2022-09-01T10:24:38.928Z,6.13
2022-09-01T10:27:43.739Z,5.45
2022-09-01T10:30:47.743Z,4.88
2022-09-01T10:33:51.155Z,5.43
2022-09-01T10:36:55.815Z,5.10
2022-09-01T10:40:20.137Z,5.35
2022-09-01T10:43:38.519Z,5.15
2022-09-01T10:46:50.225Z,5.25
2022-09-01T10:49:52.910Z,4.72
2022-09-01T10:53:00.918Z,4.97
2022-09-01T10:56:28.385Z,5.32
2022-09-01T10:59:33.716Z,4.65
2022-09-01T11:02:46.687Z,4.95
2022-09-01T11:06:11.177Z,4.28
2022-09-01T11:09:44.434Z,4.30
2022-09-01T11:13:10.920Z,4.32
2022-09-01T11:16:46.929Z,4.60
2022-09-01T11:20:09.055Z,3.92
2022-09-01T11:23:30.698Z,4.93
2022-09-01T11:26:45.062Z,4.32
2022-09-01T11:29:52.914Z,3.70
2022-09-01T11:33:09.099Z,3.35
2022-09-01T11:36:48.391Z,3.55
2022-09-01T11:39:53.609Z,3.30
2022-09-01T11:42:57.424Z,3.20
2022-09-01T11:46:22.053Z,3.78
2022-09-01T11:49:33.265Z,4.05
2022-09-01T11:52:37.439Z,4.03
2022-09-01T11:55:45.727Z,3.53
2022-09-01T11:58:47.751Z,3.80
2022-09-01T12:01:51.457Z,3.50
2022-09-01T12:04:56.361Z,3.03
2022-09-01T12:07:59.143Z,2.92
2022-09-01T12:11:03.969Z,2.80
2022-09-01T12:14:11.439Z,2.70
2022-09-01T12:17:20.964Z,2.72
2022-09-01T12:20:32.043Z,2.63
2022-09-01T12:23:37.113Z,2.95
2022-09-01T12:26:39.608Z,2.60
2022-09-01T12:29:42.579Z,2.40
2022-09-01T12:32:44.559Z,2.50
2022-09-01T12:35:47.340Z,2.60
2022-09-01T12:38:49.579Z,2.60
2022-09-01T12:42:41.114Z,2.00
2022-09-01T12:45:47.857Z,2.50
2022-09-01T12:48:49.884Z,2.10
2022-09-01T12:52:20.069Z,2.25
2022-09-01T12:55:51.778Z,2.38
2022-09-01T12:59:05.502Z,2.50
2022-09-01T13:02:27.694Z,2.28
2022-09-01T13:05:38.732Z,2.20
2022-09-01T13:08:43.609Z,2.10
2022-09-01T13:18:18.309Z,2.22
2022-09-01T13:21:22.008Z,2.20
2022-09-01T13:24:28.530Z,1.90
2022-09-01T13:27:32.615Z,1.75
2022-09-01T13:30:35.473Z,1.75
2022-09-01T13:36:59.259Z,2.58
2022-09-01T13:40:01.861Z,2.28
2022-09-01T13:43:04.907Z,2.17
2022-09-01T13:46:08.102Z,1.92
2022-09-01T13:52:33.223Z,1.75
2022-09-01T13:55:39.258Z,1.70
2022-09-01T13:58:41.308Z,2.30
2022-09-01T14:01:43.829Z,1.88
2022-09-01T14:04:45.849Z,1.90
2022-09-01T14:07:49.155Z,1.60
2022-09-01T14:10:52.801Z,1.70
2022-09-01T14:13:54.884Z,1.40
2022-09-01T14:16:57.469Z,1.70
2022-09-01T14:25:29.243Z,1.80
2022-09-01T14:28:31.126Z,1.27
2022-09-01T14:31:34.536Z,1.60
2022-09-01T14:34:37.616Z,1.25
2022-09-01T14:37:39.790Z,1.20
2022-09-01T14:40:43.461Z,1.30
2022-09-01T14:43:45.434Z,1.40
2022-09-01T14:46:47.679Z,1.40
2022-09-01T14:49:49.596Z,1.60
2022-09-01T14:52:54.613Z,1.45
2022-09-01T14:55:57.979Z,1.45
2022-09-01T14:59:01.002Z,1.60
2022-09-01T15:02:03.508Z,1.45
2022-09-01T15:05:06.979Z,1.17
2022-09-01T15:08:14.213Z,1.02
2022-09-01T15:11:21.571Z,1.10
2022-09-01T15:14:23.921Z,1.30
2022-09-01T15:17:27.422Z,1.15
2022-09-01T15:20:48.933Z,1.10
2022-09-01T15:23:51.278Z,1.23
2022-09-01T15:26:53.983Z,1.25
2022-09-01T15:29:56.353Z,1.45
2022-09-01T15:32:59.693Z,1.40
2022-09-01T15:36:01.720Z,1.15
2022-09-01T15:39:04.075Z,2.05
2022-09-01T15:42:06.517Z,3.58
2022-09-01T15:45:12.866Z,1.63
2022-09-01T15:48:14.847Z,1.58
2022-09-01T15:51:22.725Z,1.60
2022-09-01T15:54:30.193Z,1.23
2022-09-01T15:57:32.478Z,1.20
2022-09-01T16:00:34.481Z,1.40
2022-09-01T16:03:36.283Z,1.02
2022-09-01T16:06:39.184Z,1.15
2022-09-01T16:09:45.383Z,1.42
2022-09-01T16:12:49.290Z,1.20
2022-09-01T16:16:14.842Z,1.10
2022-09-01T16:19:32.236Z,1.10
2022-09-01T16:22:43.467Z,1.50
2022-09-01T16:25:50.487Z,1.38
2022-09-01T16:28:57.650Z,1.70
2022-09-01T16:31:59.704Z,2.05
2022-09-01T16:35:04.322Z,1.38
2022-09-01T16:38:17.596Z,1.17
2022-09-01T16:41:44.046Z,2.38
2022-09-01T16:45:04.189Z,2.17
2022-09-01T16:48:55.440Z,2.50
2022-09-01T16:52:00.414Z,2.10
2022-09-01T16:55:18.699Z,1.48
2022-09-01T16:58:37.750Z,1.65
2022-09-01T17:02:04.406Z,1.60
2022-09-01T17:05:10.464Z,1.63
2022-09-01T17:08:25.423Z,1.92
2022-09-01T17:11:37.699Z,1.50
2022-09-01T17:14:44.908Z,1.40
2022-09-01T17:18:22.941Z,1.40
2022-09-01T17:21:38.731Z,1.60
2022-09-01T17:24:42.951Z,1.40
2022-09-01T17:27:45.974Z,1.42
2022-09-01T17:31:01.247Z,1.77
2022-09-01T17:34:56.324Z,1.92
2022-09-01T17:38:14.235Z,1.60
2022-09-01T17:41:37.675Z,2.70
2022-09-01T17:44:56.651Z,2.97
2022-09-01T17:48:01.636Z,2.50
2022-09-01T17:51:24.741Z,2.50
2022-09-01T17:54:29.841Z,3.40
2022-09-01T17:57:47.629Z,2.43
2022-09-01T18:01:10.483Z,2.07
2022-09-01T18:04:30.014Z,1.97
2022-09-01T18:07:36.034Z,2.40
2022-09-01T18:10:39.639Z,2.03
2022-09-01T18:14:00.607Z,1.90
2022-09-01T18:17:33.339Z,2.17
2022-09-01T18:20:47.599Z,1.80
2022-09-01T18:23:53.675Z,1.90
2022-09-01T18:26:55.651Z,2.23
2022-09-01T18:29:58.065Z,2.47
2022-09-01T18:33:12.322Z,1.73
2022-09-01T18:36:49.039Z,2.17
2022-09-01T18:40:07.054Z,2.47
2022-09-01T18:43:36.709Z,2.00
2022-09-01T18:46:59.946Z,2.10
2022-09-01T18:50:28.178Z,1.97
2022-09-01T18:53:46.189Z,1.90
2022-09-01T18:57:00.575Z,1.97
2022-09-01T19:00:20.100Z,1.90
2022-09-01T19:03:59.780Z,2.23
2022-09-01T19:07:17.155Z,1.77
2022-09-01T19:10:38.914Z,2.10
2022-09-01T19:13:50.719Z,1.83
2022-09-01T19:17:34.344Z,2.20
2022-09-01T19:20:52.239Z,2.07
2022-09-01T19:24:02.919Z,2.67
2022-09-01T19:27:16.059Z,2.40
2022-09-01T19:30:21.496Z,1.70
2022-09-01T19:33:27.194Z,2.00
2022-09-01T19:36:40.579Z,2.30
2022-09-01T19:39:47.374Z,2.00
2022-09-01T19:43:10.959Z,2.10
2022-09-01T19:46:50.304Z,2.43
2022-09-01T19:50:18.804Z,2.00
2022-09-01T19:53:45.298Z,2.10
2022-09-01T19:56:55.975Z,1.97
2022-09-01T20:00:34.334Z,2.30
2022-09-01T20:03:47.914Z,2.10
2022-09-01T20:06:56.869Z,1.87
2022-09-01T20:10:37.965Z,2.67
2022-09-01T20:14:31.125Z,2.37
2022-09-01T20:18:07.014Z,2.30
2022-09-01T20:21:17.575Z,2.87
2022-09-01T20:24:30.679Z,2.00
2022-09-01T20:27:38.854Z,2.30
2022-09-01T20:30:51.418Z,2.67
2022-09-01T20:34:11.439Z,2.23
2022-09-01T20:37:35.084Z,2.50
2022-09-01T20:40:40.634Z,2.23
2022-09-01T20:43:44.302Z,2.57
2022-09-01T20:46:47.371Z,2.20
2022-09-01T20:49:49.944Z,2.30
2022-09-01T20:52:51.814Z,2.43
2022-09-01T20:56:20.339Z,2.30
2022-09-01T20:59:29.590Z,2.90
2022-09-01T21:02:57.592Z,2.40
2022-09-01T21:06:08.233Z,2.20
2022-09-01T21:09:40.848Z,2.50
2022-09-01T21:13:10.490Z,2.47
2022-09-01T21:16:39.034Z,2.70
2022-09-01T21:20:13.054Z,2.60
2022-09-01T21:23:16.489Z,2.70
2022-09-01T21:26:18.439Z,2.43
2022-09-01T21:29:28.159Z,2.77
2022-09-01T21:32:33.959Z,2.57
2022-09-01T21:35:36.000Z,2.37
2022-09-01T21:38:37.839Z,2.70
2022-09-01T21:41:39.859Z,2.73
2022-09-01T21:44:42.129Z,3.20
2022-09-01T21:47:46.231Z,2.43
2022-09-01T21:50:48.213Z,2.63
2022-09-01T21:53:50.103Z,2.50
2022-09-01T21:56:53.513Z,2.37
2022-09-01T21:59:55.589Z,2.67
2022-09-01T22:02:59.634Z,2.67
2022-09-01T22:06:02.139Z,2.70
2022-09-01T22:09:07.631Z,2.70
2022-09-01T22:12:22.868Z,2.50
2022-09-01T22:15:25.915Z,2.67
2022-09-01T22:18:27.887Z,4.03
2022-09-01T22:21:30.973Z,3.00
2022-09-01T22:24:33.144Z,2.93
2022-09-01T22:27:35.281Z,3.00
2022-09-01T22:30:44.143Z,2.77
2022-09-01T22:33:46.569Z,2.37
2022-09-01T22:36:49.673Z,2.67
2022-09-01T22:39:52.274Z,2.60
2022-09-01T22:42:54.128Z,3.10
2022-09-01T22:45:57.046Z,2.70
2022-09-01T22:49:00.096Z,2.97
2022-09-01T22:52:02.294Z,2.70
2022-09-01T22:55:05.505Z,2.80
2022-09-01T22:58:08.169Z,2.97
2022-09-01T23:01:12.887Z,2.90
2022-09-01T23:04:16.353Z,3.00
2022-09-01T23:07:18.287Z,2.60
2022-09-01T23:10:24.230Z,2.53
2022-09-01T23:13:28.538Z,2.97
2022-09-01T23:16:31.002Z,2.60
2022-09-01T23:19:33.336Z,3.20
2022-09-01T23:22:35.293Z,2.90
2022-09-01T23:25:37.445Z,2.70
2022-09-01T23:28:41.039Z,2.67
2022-09-01T23:31:44.066Z,3.40
2022-09-01T23:34:46.224Z,2.87
2022-09-01T23:37:48.254Z,3.00
2022-09-01T23:40:53.282Z,3.13
2022-09-01T23:43:56.048Z,2.70
2022-09-01T23:46:57.930Z,2.93
2022-09-01T23:49:59.963Z,2.97
2022-09-01T23:53:01.845Z,3.10
2022-09-01T23:56:09.368Z,2.70
2022-09-01T23:59:11.267Z,3.30
